createdAt,value
2018-10-07T00:01:42.943Z,99.90
2018-10-07T00:04:18.273Z,1.00
2018-10-07T00:06:53.541Z,99.90
2018-10-07T00:09:29.053Z,99.90
2018-10-07T00:12:04.505Z,99.90
2018-10-07T00:14:39.864Z,1.00
2018-10-07T00:17:15.514Z,99.90
2018-10-07T00:19:51.148Z,99.90
2018-10-07T00:22:26.531Z,60.10
2018-10-07T00:25:01.822Z,99.90
2018-10-07T00:27:37.241Z,1.00
2018-10-07T00:30:12.606Z,1.00
2018-10-07T00:32:47.857Z,1.00
2018-10-07T00:35:23.304Z,53.20
2018-10-07T00:37:58.756Z,99.90
2018-10-07T00:40:34.266Z,99.90
2018-10-07T00:43:09.937Z,99.90
2018-10-07T00:45:45.375Z,99.90
2018-10-07T00:48:20.938Z,99.90
2018-10-07T00:50:56.397Z,99.90
2018-10-07T00:53:31.897Z,99.90
2018-10-07T00:56:07.513Z,99.90
2018-10-07T00:58:42.884Z,99.90
2018-10-07T01:01:18.423Z,99.90
2018-10-07T01:03:54.015Z,99.90
2018-10-07T01:06:29.603Z,99.90
2018-10-07T01:09:07.229Z,99.90
2018-10-07T01:11:42.773Z,99.90
2018-10-07T01:14:18.313Z,99.90
2018-10-07T01:16:53.772Z,99.90
2018-10-07T01:19:29.207Z,99.90
2018-10-07T01:22:04.463Z,99.90
2018-10-07T01:24:39.825Z,99.90
2018-10-07T01:27:15.161Z,99.90
2018-10-07T01:29:50.372Z,99.90
2018-10-07T01:32:25.595Z,99.90
2018-10-07T01:35:01.072Z,99.90
2018-10-07T01:37:36.696Z,99.90
2018-10-07T01:40:11.963Z,99.90
2018-10-07T01:42:47.490Z,99.90
2018-10-07T01:45:22.965Z,99.90
2018-10-07T01:47:58.262Z,99.90
2018-10-07T01:50:33.758Z,99.90
2018-10-07T01:53:09.032Z,99.90
2018-10-07T01:55:44.416Z,99.90
2018-10-07T01:58:19.715Z,99.90
2018-10-07T02:00:54.993Z,99.90
2018-10-07T02:03:30.296Z,99.90
2018-10-07T02:06:05.803Z,99.90
2018-10-07T02:08:41.003Z,99.90
2018-10-07T02:11:16.254Z,99.90
2018-10-07T02:13:51.976Z,99.90
2018-10-07T02:16:27.444Z,99.90
2018-10-07T02:19:02.922Z,99.90
2018-10-07T02:21:38.356Z,99.90
2018-10-07T02:24:13.842Z,99.90
2018-10-07T02:26:49.117Z,99.90
2018-10-07T02:29:24.573Z,99.90
2018-10-07T02:32:00.009Z,99.90
2018-10-07T02:34:35.602Z,99.90
2018-10-07T02:37:10.873Z,99.90
2018-10-07T02:39:46.296Z,99.90
2018-10-07T02:42:21.553Z,99.90
2018-10-07T02:44:56.920Z,99.90
2018-10-07T02:47:32.332Z,99.90
2018-10-07T02:50:23.635Z,99.90
2018-10-07T02:52:59.392Z,99.90
2018-10-07T02:55:34.753Z,99.90
2018-10-07T02:58:10.595Z,99.90
2018-10-07T03:00:45.953Z,99.90
2018-10-07T03:03:21.512Z,99.90
2018-10-07T03:05:57.085Z,99.90
2018-10-07T03:08:32.693Z,99.90
2018-10-07T03:11:08.206Z,99.90
2018-10-07T03:13:43.476Z,99.90
2018-10-07T03:16:18.844Z,99.90
2018-10-07T03:18:54.265Z,99.90
2018-10-07T03:21:29.555Z,99.90
2018-10-07T03:24:05.175Z,99.90
2018-10-07T03:26:40.712Z,99.90
2018-10-07T03:29:16.469Z,99.90
2018-10-07T03:31:51.902Z,99.90
2018-10-07T03:34:27.472Z,99.90
2018-10-07T03:37:03.046Z,99.90
2018-10-07T03:39:38.412Z,99.90
2018-10-07T03:42:13.935Z,99.90
2018-10-07T03:44:49.357Z,99.90
2018-10-07T03:47:24.695Z,99.90
2018-10-07T03:50:00.136Z,99.90
2018-10-07T03:52:35.443Z,99.90
2018-10-07T03:55:10.693Z,99.90
2018-10-07T03:57:46.092Z,99.90
2018-10-07T04:00:21.884Z,99.90
2018-10-07T04:02:57.905Z,99.90
2018-10-07T04:05:33.306Z,99.90
2018-10-07T04:08:08.770Z,99.90
2018-10-07T04:10:44.195Z,99.90
2018-10-07T04:13:19.662Z,99.90
2018-10-07T04:15:55.163Z,99.90
2018-10-07T04:18:30.726Z,99.90
2018-10-07T04:21:06.462Z,99.90
2018-10-07T04:23:42.337Z,99.90
2018-10-07T04:26:17.983Z,99.90
2018-10-07T04:28:53.645Z,99.90
2018-10-07T04:31:28.971Z,99.90
2018-10-07T04:34:04.515Z,99.90
2018-10-07T04:36:40.056Z,99.90
2018-10-07T04:39:15.430Z,99.90
2018-10-07T04:41:50.954Z,99.90
2018-10-07T04:44:26.515Z,99.90
2018-10-07T04:47:02.101Z,99.90
2018-10-07T04:49:37.631Z,99.90
2018-10-07T04:52:13.052Z,99.90
2018-10-07T04:54:48.664Z,99.90
2018-10-07T04:57:23.954Z,99.90
2018-10-07T04:59:59.565Z,99.90
2018-10-07T05:02:35.094Z,99.90
2018-10-07T05:05:10.475Z,99.90
2018-10-07T05:07:45.993Z,99.90
2018-10-07T05:10:47.131Z,99.90
2018-10-07T05:13:33.061Z,99.90
2018-10-07T05:16:08.679Z,99.90
2018-10-07T05:18:45.385Z,99.90
2018-10-07T05:21:21.124Z,99.90
2018-10-07T05:23:57.104Z,99.90
2018-10-07T05:26:32.494Z,99.90
2018-10-07T05:29:07.923Z,99.90
2018-10-07T05:31:43.615Z,99.90
2018-10-07T05:34:19.026Z,99.90
2018-10-07T05:36:54.371Z,99.90
2018-10-07T05:39:29.834Z,99.90
2018-10-07T05:42:05.053Z,99.90
2018-10-07T05:44:40.401Z,99.90
2018-10-07T05:47:15.721Z,99.90
2018-10-07T05:49:51.053Z,99.90
2018-10-07T05:52:26.401Z,99.90
2018-10-07T05:55:01.739Z,99.90
2018-10-07T05:57:37.104Z,99.90
2018-10-07T06:00:15.095Z,99.90
2018-10-07T06:02:50.922Z,99.90
2018-10-07T06:05:26.746Z,99.90
2018-10-07T06:08:02.620Z,99.90
2018-10-07T06:10:37.871Z,99.90
2018-10-07T06:13:13.252Z,99.90
2018-10-07T06:15:48.571Z,99.90
2018-10-07T06:18:24.170Z,99.90
2018-10-07T06:20:59.641Z,99.90
2018-10-07T06:23:35.301Z,99.90
2018-10-07T06:26:10.671Z,99.90
2018-10-07T06:28:46.124Z,99.90
2018-10-07T06:31:21.485Z,99.90
2018-10-07T06:33:56.830Z,99.90
2018-10-07T06:36:32.375Z,99.90
2018-10-07T06:39:07.953Z,99.90
2018-10-07T06:41:43.442Z,99.90
2018-10-07T06:44:19.076Z,99.90
2018-10-07T06:46:54.528Z,99.90
2018-10-07T06:49:30.071Z,99.90
2018-10-07T06:52:05.487Z,99.90
2018-10-07T06:54:40.964Z,99.90
2018-10-07T06:57:17.271Z,99.90
2018-10-07T06:59:52.775Z,99.90
2018-10-07T07:02:28.303Z,99.90
2018-10-07T07:05:03.863Z,99.90
2018-10-07T07:07:39.411Z,99.90
2018-10-07T07:10:14.955Z,99.90
2018-10-07T07:12:50.435Z,99.90
2018-10-07T07:15:25.733Z,99.90
2018-10-07T07:18:00.964Z,99.90
2018-10-07T07:20:36.512Z,99.90
2018-10-07T07:23:11.934Z,99.90
2018-10-07T07:25:47.691Z,99.90
2018-10-07T07:28:23.476Z,99.90
2018-10-07T07:30:58.891Z,99.90
2018-10-07T07:33:34.474Z,99.90
2018-10-07T07:36:09.884Z,99.90
2018-10-07T07:38:45.335Z,99.90
2018-10-07T07:41:20.774Z,99.90
2018-10-07T07:43:56.131Z,99.90
2018-10-07T07:46:31.644Z,99.90
2018-10-07T07:49:07.061Z,99.90
2018-10-07T07:51:42.354Z,99.90
2018-10-07T07:54:17.623Z,99.90
2018-10-07T07:56:52.815Z,99.90
2018-10-07T07:59:28.200Z,99.90
2018-10-07T08:02:03.602Z,99.90
2018-10-07T08:04:39.383Z,18.70
2018-10-07T08:07:14.872Z,98.20
2018-10-07T08:09:50.454Z,99.90
2018-10-07T08:12:25.894Z,1.00
2018-10-07T08:15:01.561Z,99.90
2018-10-07T08:17:37.390Z,99.90
2018-10-07T08:20:12.839Z,99.90
2018-10-07T08:22:48.284Z,1.00
2018-10-07T08:25:23.631Z,1.00
2018-10-07T08:27:58.941Z,99.90
2018-10-07T08:30:34.224Z,1.00
2018-10-07T08:33:09.871Z,99.90
2018-10-07T08:35:45.090Z,1.00
2018-10-07T08:38:20.534Z,99.90
2018-10-07T08:40:55.771Z,99.90
2018-10-07T08:43:31.015Z,87.10
2018-10-07T08:46:06.303Z,5.50
2018-10-07T08:48:41.454Z,1.00
2018-10-07T08:51:16.840Z,1.00
2018-10-07T08:53:52.071Z,99.90
2018-10-07T08:56:27.446Z,99.90
2018-10-07T08:59:02.984Z,99.90
2018-10-07T09:01:38.400Z,99.90
2018-10-07T09:04:14.093Z,99.90
2018-10-07T09:06:49.613Z,99.90
2018-10-07T09:09:25.243Z,99.90
2018-10-07T09:12:00.600Z,99.90
2018-10-07T09:14:35.863Z,10.70
2018-10-07T09:17:11.204Z,1.00
2018-10-07T09:19:46.919Z,1.00
2018-10-07T09:22:22.574Z,1.00
2018-10-07T09:24:58.133Z,1.00
2018-10-07T09:27:33.770Z,1.00
2018-10-07T09:30:09.317Z,1.00
2018-10-07T09:32:44.883Z,1.00
2018-10-07T09:35:20.317Z,1.00
2018-10-07T09:37:55.634Z,1.00
2018-10-07T09:40:31.013Z,1.00
2018-10-07T09:43:06.521Z,1.00
2018-10-07T09:45:42.054Z,1.00
2018-10-07T09:48:17.541Z,1.00
2018-10-07T09:50:52.871Z,1.00
2018-10-07T09:53:28.124Z,1.00
2018-10-07T09:56:03.573Z,1.00
2018-10-07T09:58:39.361Z,1.00
2018-10-07T10:01:14.938Z,1.00
2018-10-07T10:03:50.445Z,1.00
2018-10-07T10:06:26.071Z,1.00
2018-10-07T10:09:01.600Z,1.00
2018-10-07T10:11:37.054Z,1.00
2018-10-07T10:14:12.498Z,1.00
2018-10-07T10:16:53.911Z,1.00
2018-10-07T10:19:36.079Z,1.00
2018-10-07T10:23:22.368Z,1.00
2018-10-07T10:26:17.051Z,1.00
2018-10-07T10:29:06.139Z,99.90
2018-10-07T10:32:06.695Z,99.90
2018-10-07T10:34:48.923Z,99.90
2018-10-07T10:37:31.241Z,99.90
2018-10-07T10:40:09.173Z,99.90
2018-10-07T10:43:01.640Z,99.90
2018-10-07T10:45:43.884Z,99.90
2018-10-07T10:48:28.918Z,99.90
2018-10-07T10:51:12.521Z,99.90
2018-10-07T10:53:52.623Z,99.90
2018-10-07T10:56:35.525Z,99.90
2018-10-07T10:59:19.461Z,99.90
2018-10-07T11:02:03.393Z,99.90
2018-10-07T11:04:44.724Z,99.90
2018-10-07T11:07:23.601Z,99.90
2018-10-07T11:12:16.291Z,99.90
2018-10-07T11:16:02.282Z,99.90
2018-10-07T11:18:54.904Z,99.90
2018-10-07T11:21:39.165Z,99.90
2018-10-07T11:24:19.005Z,99.90
2018-10-07T11:29:09.229Z,99.90
2018-10-07T11:31:57.237Z,99.90
2018-10-07T11:36:49.325Z,99.90
2018-10-07T11:39:37.861Z,99.90
2018-10-07T11:42:34.828Z,99.90
2018-10-07T11:45:12.734Z,99.90
2018-10-07T11:49:13.478Z,99.90
2018-10-07T11:51:59.876Z,99.90
2018-10-07T11:55:01.454Z,99.90
2018-10-07T11:57:36.891Z,99.90
2018-10-07T12:00:12.541Z,99.90
2018-10-07T12:02:47.879Z,99.90
2018-10-07T12:05:23.243Z,99.90
2018-10-07T12:07:58.784Z,99.90
2018-10-07T12:10:34.113Z,99.90
2018-10-07T12:13:09.455Z,99.90
2018-10-07T12:15:44.814Z,99.90
2018-10-07T12:18:20.260Z,99.90
2018-10-07T12:20:58.660Z,99.90
2018-10-07T12:23:34.561Z,99.90
2018-10-07T12:26:09.971Z,99.90
2018-10-07T12:28:45.510Z,99.90
2018-10-07T12:31:21.184Z,99.90
2018-10-07T12:33:56.810Z,99.90
2018-10-07T12:36:32.444Z,99.90
2018-10-07T12:39:08.276Z,99.90
2018-10-07T12:41:44.062Z,99.90
2018-10-07T12:44:19.394Z,99.90
2018-10-07T12:46:54.951Z,99.90
2018-10-07T12:49:30.300Z,99.90
2018-10-07T12:52:05.891Z,99.90
2018-10-07T12:54:41.561Z,99.90
2018-10-07T12:57:16.924Z,99.90
2018-10-07T12:59:52.582Z,99.90
2018-10-07T13:02:28.264Z,99.90
2018-10-07T13:05:03.778Z,99.90
2018-10-07T13:07:39.553Z,99.90
2018-10-07T13:10:15.161Z,99.90
2018-10-07T13:12:50.633Z,99.90
2018-10-07T13:15:26.643Z,99.90
2018-10-07T13:18:02.033Z,99.90
2018-10-07T13:20:37.444Z,99.90
2018-10-07T13:23:13.041Z,99.90
2018-10-07T13:25:48.342Z,99.90
2018-10-07T13:28:23.783Z,99.90
2018-10-07T13:30:59.174Z,99.90
2018-10-07T13:33:34.501Z,99.90
2018-10-07T13:36:09.913Z,99.90
2018-10-07T13:38:45.392Z,99.90
2018-10-07T13:41:21.020Z,99.90
2018-10-07T13:43:56.614Z,99.90
2018-10-07T13:46:32.041Z,99.90
2018-10-07T13:49:07.653Z,99.90
2018-10-07T13:51:43.104Z,99.90
2018-10-07T13:54:18.734Z,99.90
2018-10-07T13:56:54.124Z,99.90
2018-10-07T13:59:29.630Z,99.90
2018-10-07T14:02:05.092Z,99.90
2018-10-07T14:04:40.412Z,99.90
2018-10-07T14:07:15.660Z,99.90
2018-10-07T14:09:50.990Z,99.90
2018-10-07T14:12:26.693Z,99.90
2018-10-07T14:15:02.410Z,99.90
2018-10-07T14:17:38.085Z,99.90
2018-10-07T14:20:15.438Z,99.90
2018-10-07T14:22:50.721Z,99.90
2018-10-07T14:25:25.760Z,99.90
2018-10-07T14:28:01.184Z,99.90
2018-10-07T14:30:36.183Z,99.90
2018-10-07T14:33:11.344Z,99.90
2018-10-07T14:35:46.691Z,99.90
2018-10-07T14:38:22.042Z,99.90
2018-10-07T14:40:57.155Z,99.90
2018-10-07T14:43:32.639Z,99.90
2018-10-07T14:46:08.260Z,99.90
2018-10-07T14:48:43.610Z,99.90
2018-10-07T14:51:18.963Z,99.90
2018-10-07T14:53:54.360Z,99.90
2018-10-07T14:56:29.933Z,99.90
2018-10-07T14:59:05.384Z,99.90
2018-10-07T15:01:40.790Z,99.90
2018-10-07T15:04:16.052Z,99.90
2018-10-07T15:06:51.390Z,99.90
2018-10-07T15:09:26.814Z,99.90
2018-10-07T15:12:02.073Z,99.90
2018-10-07T15:14:37.320Z,99.90
2018-10-07T15:17:12.871Z,99.90
2018-10-07T15:19:51.512Z,99.90
2018-10-07T15:22:27.035Z,99.90
2018-10-07T15:25:02.467Z,99.90
2018-10-07T15:27:38.011Z,99.90
2018-10-07T15:30:13.560Z,99.90
2018-10-07T15:32:49.223Z,99.90
2018-10-07T15:35:24.765Z,99.90
2018-10-07T15:38:00.194Z,99.90
2018-10-07T15:40:35.624Z,99.90
2018-10-07T15:43:10.903Z,99.90
2018-10-07T15:45:46.120Z,99.90
2018-10-07T15:48:21.497Z,99.90
2018-10-07T15:50:56.893Z,99.90
2018-10-07T15:53:32.161Z,99.90
2018-10-07T15:56:07.483Z,1.00
2018-10-07T15:58:42.841Z,1.00
2018-10-07T16:01:18.203Z,1.00
2018-10-07T16:03:53.414Z,1.00
2018-10-07T16:06:28.722Z,1.00
2018-10-07T16:09:05.548Z,1.00
2018-10-07T16:11:41.070Z,1.00
2018-10-07T16:14:16.547Z,1.00
2018-10-07T16:16:52.093Z,1.00
2018-10-07T16:19:27.714Z,1.00
2018-10-07T16:22:02.987Z,1.00
2018-10-07T16:24:38.181Z,1.00
2018-10-07T16:27:13.822Z,1.00
2018-10-07T16:29:49.191Z,1.00
2018-10-07T16:32:24.622Z,1.00
2018-10-07T16:34:59.875Z,1.00
2018-10-07T16:37:35.415Z,1.00
2018-10-07T16:40:10.761Z,68.30
2018-10-07T16:42:46.084Z,4.60
2018-10-07T16:45:21.355Z,36.70
2018-10-07T16:47:56.705Z,99.90
2018-10-07T16:50:32.146Z,99.90
2018-10-07T16:53:07.544Z,99.90
2018-10-07T16:55:42.867Z,99.90
2018-10-07T16:58:18.231Z,99.90
2018-10-07T17:00:53.625Z,1.00
2018-10-07T17:03:29.134Z,1.00
2018-10-07T17:06:04.990Z,1.00
2018-10-07T17:08:40.322Z,1.00
2018-10-07T17:11:15.630Z,1.00
2018-10-07T17:13:51.032Z,95.30
2018-10-07T17:16:26.464Z,99.90
2018-10-07T17:19:02.246Z,99.90
2018-10-07T17:21:37.779Z,99.90
2018-10-07T17:24:13.274Z,99.90
2018-10-07T17:26:48.775Z,1.00
2018-10-07T17:29:24.226Z,66.30
2018-10-07T17:31:59.621Z,1.00
2018-10-07T17:34:35.690Z,1.00
2018-10-07T17:37:11.243Z,1.00
2018-10-07T17:39:46.900Z,22.20
2018-10-07T17:42:22.555Z,99.90
2018-10-07T17:44:58.216Z,99.90
2018-10-07T17:47:33.971Z,1.00
2018-10-07T17:50:10.415Z,1.00
2018-10-07T17:52:46.593Z,1.00
2018-10-07T17:55:22.405Z,99.90
2018-10-07T17:57:58.291Z,1.00
2018-10-07T18:00:35.646Z,99.90
2018-10-07T18:03:11.340Z,99.90
2018-10-07T18:05:46.821Z,99.90
2018-10-07T18:08:22.204Z,1.00
2018-10-07T18:10:57.973Z,1.00
2018-10-07T18:13:33.405Z,82.60
2018-10-07T18:16:09.183Z,99.90
2018-10-07T18:18:45.633Z,1.00
2018-10-07T18:21:21.215Z,99.90
2018-10-07T18:23:57.021Z,99.90
2018-10-07T18:26:33.055Z,99.90
2018-10-07T18:29:08.733Z,1.00
2018-10-07T18:31:44.354Z,1.00
2018-10-07T18:34:20.266Z,9.50
2018-10-07T18:36:56.131Z,18.40
2018-10-07T18:39:31.463Z,99.90
2018-10-07T18:42:07.044Z,1.00
2018-10-07T18:44:42.563Z,1.00
2018-10-07T18:47:18.121Z,64.40
2018-10-07T18:49:53.545Z,99.90
2018-10-07T18:52:29.110Z,99.90
2018-10-07T18:55:04.696Z,1.00
2018-10-07T18:57:40.213Z,99.90
2018-10-07T19:00:15.791Z,99.90
2018-10-07T19:02:51.429Z,99.90
2018-10-07T19:05:26.854Z,1.00
2018-10-07T19:08:02.373Z,1.00
2018-10-07T19:10:37.855Z,96.20
2018-10-07T19:13:13.367Z,99.90
2018-10-07T19:15:48.978Z,99.90
2018-10-07T19:18:24.484Z,99.90
2018-10-07T19:20:59.928Z,99.90
2018-10-07T19:23:35.254Z,99.90
2018-10-07T19:26:10.591Z,99.90
2018-10-07T19:28:46.221Z,1.00
2018-10-07T19:31:21.603Z,1.00
2018-10-07T19:33:56.770Z,1.00
2018-10-07T19:36:32.091Z,1.00
2018-10-07T19:39:09.291Z,1.00
2018-10-07T19:41:44.828Z,7.60
2018-10-07T19:44:20.448Z,81.10
2018-10-07T19:46:55.807Z,99.90
2018-10-07T19:49:31.275Z,99.90
2018-10-07T19:52:06.946Z,99.90
2018-10-07T19:54:42.563Z,99.90
2018-10-07T19:57:17.812Z,99.90
2018-10-07T19:59:53.065Z,99.90
2018-10-07T20:02:28.503Z,99.90
2018-10-07T20:05:04.059Z,99.90
2018-10-07T20:07:39.430Z,99.90
2018-10-07T20:10:15.041Z,99.90
2018-10-07T20:12:50.521Z,99.90
2018-10-07T20:15:26.063Z,99.90
2018-10-07T20:18:01.431Z,99.90
2018-10-07T20:20:36.845Z,99.90
2018-10-07T20:23:12.230Z,99.90
2018-10-07T20:25:47.834Z,99.90
2018-10-07T20:28:23.381Z,99.90
2018-10-07T20:30:58.893Z,99.90
2018-10-07T20:33:34.294Z,99.90
2018-10-07T20:36:09.800Z,99.90
2018-10-07T20:38:45.184Z,99.90
2018-10-07T20:41:20.728Z,99.90
2018-10-07T20:43:56.167Z,99.90
2018-10-07T20:46:31.571Z,99.90
2018-10-07T20:49:07.461Z,99.90
2018-10-07T20:51:43.291Z,99.90
2018-10-07T20:54:18.634Z,99.90
2018-10-07T20:56:54.276Z,99.90
2018-10-07T20:59:30.280Z,99.90
2018-10-07T21:02:05.880Z,99.90
2018-10-07T21:04:41.111Z,99.90
2018-10-07T21:07:16.507Z,99.90
2018-10-07T21:09:52.021Z,99.90
2018-10-07T21:12:27.851Z,99.90
2018-10-07T21:15:03.456Z,99.90
2018-10-07T21:17:39.011Z,99.90
2018-10-07T21:20:14.490Z,99.90
2018-10-07T21:22:50.094Z,99.90
2018-10-07T21:25:25.533Z,99.90
2018-10-07T21:28:00.956Z,99.90
2018-10-07T21:30:36.372Z,99.90
2018-10-07T21:33:11.944Z,99.90
2018-10-07T21:35:47.714Z,99.90
2018-10-07T21:38:23.373Z,99.90
2018-10-07T21:40:58.661Z,99.90
2018-10-07T21:43:33.933Z,99.90
2018-10-07T21:46:09.387Z,99.90
2018-10-07T21:48:45.133Z,99.90
2018-10-07T21:51:20.850Z,99.90
2018-10-07T21:53:56.333Z,99.90
2018-10-07T21:56:31.743Z,99.90
2018-10-07T21:59:07.523Z,99.90
2018-10-07T22:01:43.353Z,9.60
2018-10-07T22:04:18.633Z,1.00
2018-10-07T22:06:54.043Z,1.00
2018-10-07T22:09:29.533Z,1.00
2018-10-07T22:12:05.232Z,99.90
2018-10-07T22:14:41.134Z,1.00
2018-10-07T22:17:16.529Z,99.90
2018-10-07T22:19:51.884Z,1.00
2018-10-07T22:22:27.436Z,1.00
2018-10-07T22:25:02.784Z,99.90
2018-10-07T22:27:38.213Z,1.00
2018-10-07T22:30:13.743Z,99.90
2018-10-07T22:32:49.475Z,1.00
2018-10-07T22:35:25.063Z,1.00
2018-10-07T22:38:00.523Z,1.00
2018-10-07T22:40:35.809Z,1.00
2018-10-07T22:43:11.323Z,82.30
2018-10-07T22:45:46.551Z,99.90
2018-10-07T22:48:21.994Z,99.90
2018-10-07T22:50:57.315Z,99.90
2018-10-07T22:53:32.963Z,99.90
2018-10-07T22:56:08.613Z,99.90
2018-10-07T22:58:43.942Z,99.90
2018-10-07T23:01:19.634Z,99.90
2018-10-07T23:03:55.040Z,99.90
2018-10-07T23:06:30.800Z,99.90
2018-10-07T23:09:09.278Z,99.90
2018-10-07T23:11:44.774Z,99.90
2018-10-07T23:14:20.179Z,99.90
2018-10-07T23:16:55.722Z,99.90
2018-10-07T23:19:31.314Z,99.90
2018-10-07T23:22:07.074Z,99.90
2018-10-07T23:24:42.475Z,99.90
2018-10-07T23:27:18.143Z,99.90
2018-10-07T23:29:53.583Z,99.90
2018-10-07T23:32:29.171Z,99.90
2018-10-07T23:35:04.694Z,99.90
2018-10-07T23:37:39.855Z,99.90
2018-10-07T23:40:15.441Z,99.90
2018-10-07T23:42:50.791Z,99.90
2018-10-07T23:45:26.330Z,99.90
2018-10-07T23:48:01.570Z,99.90
2018-10-07T23:50:37.011Z,99.90
2018-10-07T23:53:12.553Z,99.90
2018-10-07T23:55:48.301Z,99.90
2018-10-07T23:58:23.830Z,99.90
